createdAt,value
2019-03-29T00:01:02.444Z,91.10
2019-03-29T00:03:23.981Z,91.20
2019-03-29T00:05:45.202Z,91.10
2019-03-29T00:08:06.509Z,91.20
2019-03-29T00:10:27.710Z,91.50
2019-03-29T00:12:48.931Z,91.40
2019-03-29T00:15:10.130Z,91.50
2019-03-29T00:17:31.357Z,91.60
2019-03-29T00:19:52.569Z,92.00
2019-03-29T00:22:13.801Z,91.80
2019-03-29T00:24:35.014Z,91.70
2019-03-29T00:26:56.332Z,91.60
2019-03-29T00:29:17.519Z,91.60
2019-03-29T00:31:39.966Z,91.70
2019-03-29T00:34:01.459Z,91.80
2019-03-29T00:36:22.963Z,91.80
2019-03-29T00:38:44.179Z,91.90
2019-03-29T00:41:06.484Z,91.90
2019-03-29T00:44:02.734Z,91.90
2019-03-29T00:46:24.021Z,92.00
2019-03-29T00:48:45.230Z,92.20
2019-03-29T00:51:06.764Z,92.10
2019-03-29T00:53:27.982Z,92.00
2019-03-29T00:55:49.217Z,92.20
2019-03-29T00:58:11.625Z,92.20
2019-03-29T01:00:33.651Z,92.20
2019-03-29T01:02:55.032Z,92.20
2019-03-29T01:05:16.221Z,92.40
2019-03-29T01:07:37.436Z,92.50
2019-03-29T01:09:58.727Z,92.70
2019-03-29T01:12:19.926Z,92.70
2019-03-29T01:14:41.141Z,92.70
2019-03-29T01:17:02.331Z,92.90
2019-03-29T01:19:23.566Z,93.00
2019-03-29T01:21:44.767Z,93.00
2019-03-29T01:24:05.986Z,93.00
2019-03-29T01:26:27.415Z,93.10
2019-03-29T01:28:48.855Z,93.20
2019-03-29T01:31:10.055Z,93.20
2019-03-29T01:33:31.278Z,93.40
2019-03-29T01:35:52.827Z,93.60
2019-03-29T01:38:21.581Z,93.50
2019-03-29T01:40:38.229Z,93.60
2019-03-29T01:42:59.460Z,93.50
2019-03-29T01:45:20.667Z,93.80
2019-03-29T01:47:41.855Z,94.10
2019-03-29T01:50:05.008Z,94.10
2019-03-29T01:52:26.213Z,93.80
2019-03-29T01:54:47.425Z,93.60
2019-03-29T01:57:08.640Z,93.30
2019-03-29T01:59:29.846Z,93.40
2019-03-29T02:01:51.045Z,93.80
2019-03-29T02:04:13.249Z,94.00
2019-03-29T02:06:34.429Z,94.10
2019-03-29T02:08:55.625Z,94.40
2019-03-29T02:11:16.821Z,94.10
2019-03-29T02:13:38.113Z,94.20
2019-03-29T02:15:59.489Z,94.30
2019-03-29T02:18:20.706Z,94.20
2019-03-29T02:20:42.222Z,94.00
2019-03-29T02:23:04.092Z,93.90
2019-03-29T02:25:25.843Z,93.80
2019-03-29T02:27:47.037Z,93.80
2019-03-29T02:30:10.177Z,94.00
2019-03-29T02:32:31.546Z,94.10
2019-03-29T02:34:52.746Z,94.20
2019-03-29T02:37:13.937Z,94.10
2019-03-29T02:39:35.195Z,94.10
2019-03-29T02:41:56.515Z,94.20
2019-03-29T02:44:17.879Z,94.40
2019-03-29T02:46:39.079Z,94.40
2019-03-29T02:49:00.701Z,94.50
2019-03-29T02:51:22.294Z,94.50
2019-03-29T02:53:43.490Z,94.50
2019-03-29T02:56:04.690Z,94.60
2019-03-29T02:58:25.910Z,94.70
2019-03-29T03:00:48.020Z,94.60
2019-03-29T03:03:09.619Z,94.60
2019-03-29T03:05:30.841Z,94.50
2019-03-29T03:07:52.033Z,94.60
2019-03-29T03:10:13.670Z,94.70
2019-03-29T03:12:35.043Z,94.70
2019-03-29T03:14:56.274Z,94.90
2019-03-29T03:17:17.508Z,95.00
2019-03-29T03:19:38.794Z,95.40
2019-03-29T03:21:59.981Z,95.60
2019-03-29T03:24:21.178Z,95.60
2019-03-29T03:26:42.401Z,95.30
2019-03-29T03:29:03.680Z,95.50
2019-03-29T03:31:24.989Z,95.50
2019-03-29T03:33:46.294Z,95.50
2019-03-29T03:36:07.605Z,95.60
2019-03-29T03:38:28.802Z,95.80
2019-03-29T03:40:50.517Z,95.70
2019-03-29T03:43:11.717Z,95.70
2019-03-29T03:45:32.929Z,95.60
2019-03-29T03:47:54.216Z,95.50
2019-03-29T03:50:39.412Z,95.50
2019-03-29T03:53:00.714Z,95.30
2019-03-29T03:55:22.517Z,95.60
2019-03-29T03:57:43.949Z,95.50
2019-03-29T04:00:07.341Z,95.60
2019-03-29T04:02:28.565Z,95.50
2019-03-29T04:04:49.752Z,95.60
2019-03-29T04:07:11.014Z,95.50
2019-03-29T04:09:48.566Z,95.60
2019-03-29T04:11:55.409Z,95.60
2019-03-29T04:14:16.702Z,95.80
2019-03-29T04:16:37.923Z,95.90
2019-03-29T04:18:59.125Z,95.80
2019-03-29T04:21:20.416Z,95.80
2019-03-29T04:23:41.608Z,95.70
2019-03-29T04:26:03.152Z,96.10
2019-03-29T04:28:24.460Z,96.30
2019-03-29T04:30:45.841Z,96.40
2019-03-29T04:33:10.855Z,96.30
2019-03-29T04:35:30.140Z,96.40
2019-03-29T04:37:51.328Z,96.60
2019-03-29T04:40:12.532Z,96.80
2019-03-29T04:42:33.730Z,96.60
2019-03-29T04:44:54.940Z,96.70
2019-03-29T04:47:16.157Z,96.60
2019-03-29T04:49:37.361Z,96.60
2019-03-29T04:51:58.573Z,96.50
2019-03-29T04:54:20.027Z,96.60
2019-03-29T04:56:41.383Z,96.50
2019-03-29T04:59:02.571Z,96.50
2019-03-29T05:01:24.647Z,96.60
2019-03-29T05:03:45.939Z,96.80
2019-03-29T05:06:07.139Z,96.70
2019-03-29T05:08:28.389Z,96.80
2019-03-29T05:10:49.604Z,96.90
2019-03-29T05:13:21.691Z,97.00
2019-03-29T05:15:44.895Z,97.20
2019-03-29T05:18:06.103Z,97.20
2019-03-29T05:20:27.336Z,97.10
2019-03-29T05:22:48.674Z,97.00
2019-03-29T05:25:09.988Z,97.10
2019-03-29T05:27:31.322Z,97.10
2019-03-29T05:29:52.659Z,97.10
2019-03-29T05:32:14.018Z,97.10
2019-03-29T05:34:35.559Z,97.00
2019-03-29T05:36:58.446Z,97.00
2019-03-29T05:39:19.976Z,96.70
2019-03-29T05:41:41.238Z,96.70
2019-03-29T05:44:02.437Z,96.70
2019-03-29T05:46:23.740Z,96.50
2019-03-29T05:48:46.226Z,96.20
2019-03-29T05:51:07.445Z,96.10
2019-03-29T05:53:28.826Z,95.90
2019-03-29T05:55:50.223Z,95.70
2019-03-29T05:58:11.492Z,95.70
2019-03-29T06:00:32.775Z,95.60
2019-03-29T06:02:54.005Z,95.30
2019-03-29T06:05:15.573Z,95.20
2019-03-29T06:07:36.922Z,95.00
2019-03-29T06:09:58.130Z,94.70
2019-03-29T06:12:19.451Z,94.40
2019-03-29T06:14:40.755Z,94.50
2019-03-29T06:17:02.339Z,94.20
2019-03-29T06:19:23.562Z,94.00
2019-03-29T06:21:44.922Z,93.80
2019-03-29T06:24:06.231Z,93.60
2019-03-29T06:26:27.506Z,93.40
2019-03-29T06:28:48.807Z,93.40
2019-03-29T06:31:10.032Z,93.10
2019-03-29T06:33:31.510Z,92.90
2019-03-29T06:35:54.709Z,92.70
2019-03-29T06:38:17.335Z,92.60
2019-03-29T06:40:38.619Z,92.50
2019-03-29T06:42:59.925Z,92.00
2019-03-29T06:45:21.166Z,91.80
2019-03-29T06:47:42.406Z,91.40
2019-03-29T06:50:05.415Z,91.20
2019-03-29T06:52:27.098Z,91.40
2019-03-29T06:54:48.392Z,90.90
2019-03-29T06:57:09.585Z,90.60
2019-03-29T06:59:30.821Z,90.60
2019-03-29T07:01:52.198Z,90.50
2019-03-29T07:04:14.582Z,90.20
2019-03-29T07:06:35.862Z,90.30
2019-03-29T07:08:57.158Z,90.00
2019-03-29T07:11:18.496Z,89.10
2019-03-29T07:13:41.392Z,88.70
2019-03-29T07:16:04.643Z,88.00
2019-03-29T07:18:25.948Z,86.80
2019-03-29T07:20:49.086Z,85.90
2019-03-29T07:23:10.426Z,85.40
2019-03-29T07:25:31.668Z,85.10
2019-03-29T07:27:53.157Z,84.90
2019-03-29T07:30:15.172Z,84.60
2019-03-29T07:32:36.891Z,84.00
2019-03-29T07:34:58.399Z,83.10
2019-03-29T07:37:19.840Z,82.90
2019-03-29T07:39:41.033Z,82.50
2019-03-29T07:42:12.457Z,82.20
2019-03-29T07:44:33.702Z,81.60
2019-03-29T07:46:54.980Z,81.00
2019-03-29T07:49:16.295Z,81.10
2019-03-29T07:51:37.622Z,80.30
2019-03-29T07:54:00.061Z,80.00
2019-03-29T07:56:21.271Z,80.00
2019-03-29T07:58:42.650Z,79.90
2019-03-29T08:01:04.002Z,79.40
2019-03-29T08:03:25.226Z,78.80
2019-03-29T08:05:46.464Z,78.20
2019-03-29T08:08:08.041Z,78.00
2019-03-29T08:10:31.236Z,77.50
2019-03-29T08:12:52.386Z,77.00
2019-03-29T08:15:13.592Z,78.90
2019-03-29T08:17:34.993Z,77.50
2019-03-29T08:20:24.584Z,77.00
2019-03-29T08:22:21.337Z,76.60
2019-03-29T08:24:42.741Z,76.40
2019-03-29T08:27:04.013Z,75.30
2019-03-29T08:29:25.237Z,73.90
2019-03-29T08:31:46.487Z,73.90
2019-03-29T08:34:09.134Z,73.20
2019-03-29T08:36:30.369Z,72.70
2019-03-29T08:38:51.630Z,72.40
2019-03-29T08:41:12.817Z,72.20
2019-03-29T08:43:34.109Z,71.70
2019-03-29T08:45:57.600Z,71.50
2019-03-29T08:48:18.587Z,71.40
2019-03-29T08:50:39.816Z,70.70
2019-03-29T08:53:02.446Z,69.70
2019-03-29T08:55:23.672Z,69.70
2019-03-29T08:57:44.870Z,69.50
2019-03-29T09:00:07.285Z,69.50
2019-03-29T09:02:28.843Z,67.80
2019-03-29T09:04:50.531Z,67.50
2019-03-29T09:07:11.970Z,66.90
2019-03-29T09:09:35.839Z,66.00
2019-03-29T09:11:57.062Z,66.40
2019-03-29T09:14:18.369Z,65.10
2019-03-29T09:16:39.599Z,65.20
2019-03-29T09:19:00.849Z,64.50
2019-03-29T09:21:22.063Z,64.90
2019-03-29T09:23:45.050Z,65.20
2019-03-29T09:26:06.254Z,63.80
2019-03-29T09:28:27.497Z,63.30
2019-03-29T09:30:49.938Z,62.10
2019-03-29T09:33:11.770Z,63.40
2019-03-29T09:35:32.992Z,62.50
2019-03-29T09:37:56.523Z,61.80
2019-03-29T09:40:17.503Z,61.40
2019-03-29T09:42:38.816Z,60.80
2019-03-29T09:45:19.984Z,59.80
2019-03-29T09:47:41.218Z,59.10
2019-03-29T09:50:24.289Z,59.70
2019-03-29T09:52:45.536Z,59.40
2019-03-29T09:55:07.040Z,59.40
2019-03-29T09:57:37.345Z,58.60
2019-03-29T09:59:51.398Z,58.60
2019-03-29T10:02:12.620Z,58.70
2019-03-29T10:04:34.915Z,58.30
2019-03-29T10:06:56.102Z,57.90
2019-03-29T10:09:17.339Z,57.80
2019-03-29T10:11:38.573Z,57.00
2019-03-29T10:13:59.789Z,57.30
2019-03-29T10:16:21.029Z,56.60
2019-03-29T10:18:42.214Z,56.20
2019-03-29T10:21:03.416Z,56.60
2019-03-29T10:23:24.635Z,56.00
2019-03-29T10:25:45.935Z,55.70
2019-03-29T10:28:07.232Z,55.30
2019-03-29T10:30:39.394Z,55.10
2019-03-29T10:33:01.729Z,54.60
2019-03-29T10:35:22.939Z,54.70
2019-03-29T10:37:44.134Z,54.90
2019-03-29T10:40:05.560Z,54.60
2019-03-29T10:42:26.766Z,52.90
2019-03-29T10:44:49.528Z,52.50
2019-03-29T10:47:11.086Z,52.60
2019-03-29T10:49:33.402Z,52.40
2019-03-29T10:51:54.604Z,52.20
2019-03-29T10:54:15.817Z,52.60
2019-03-29T10:56:37.032Z,52.10
2019-03-29T10:59:26.332Z,51.00
2019-03-29T11:01:34.870Z,51.00
2019-03-29T11:03:56.066Z,50.50
2019-03-29T11:06:17.469Z,51.00
2019-03-29T11:08:38.789Z,50.60
2019-03-29T11:10:59.987Z,50.50
2019-03-29T11:13:21.242Z,50.10
2019-03-29T11:15:42.465Z,49.10
2019-03-29T11:18:04.510Z,48.00
2019-03-29T11:20:25.889Z,49.10
2019-03-29T11:22:47.098Z,47.60
2019-03-29T11:25:08.295Z,47.20
2019-03-29T11:27:29.548Z,47.60
2019-03-29T11:29:51.068Z,47.60
2019-03-29T11:32:13.938Z,47.00
2019-03-29T11:34:35.137Z,47.10
2019-03-29T11:36:56.354Z,46.10
2019-03-29T11:39:17.666Z,47.10
2019-03-29T11:41:38.882Z,46.70
2019-03-29T11:44:00.297Z,47.00
2019-03-29T11:46:21.635Z,47.20
2019-03-29T11:48:44.083Z,47.00
2019-03-29T11:51:18.595Z,48.10
2019-03-29T11:53:28.703Z,47.60
2019-03-29T11:55:50.090Z,47.80
2019-03-29T11:58:11.279Z,47.10
2019-03-29T12:00:34.460Z,47.00
2019-03-29T12:02:55.753Z,47.30
2019-03-29T12:05:17.532Z,47.50
2019-03-29T12:07:40.372Z,46.90
2019-03-29T12:10:05.018Z,46.80
2019-03-29T12:12:29.859Z,47.10
2019-03-29T12:14:51.208Z,47.40
2019-03-29T12:17:12.414Z,47.60
2019-03-29T12:19:33.621Z,47.80
2019-03-29T12:21:54.875Z,46.40
2019-03-29T12:24:16.057Z,46.30
2019-03-29T12:26:37.249Z,46.40
2019-03-29T12:28:58.461Z,46.60
2019-03-29T12:31:19.676Z,48.10
2019-03-29T12:33:40.871Z,47.50
2019-03-29T12:36:02.075Z,45.80
2019-03-29T12:38:26.342Z,45.60
2019-03-29T12:40:47.946Z,45.80
2019-03-29T12:43:12.379Z,46.00
2019-03-29T12:45:32.450Z,45.80
2019-03-29T12:47:53.755Z,45.70
2019-03-29T12:50:15.189Z,45.70
2019-03-29T12:52:36.377Z,45.80
2019-03-29T12:54:57.682Z,45.50
2019-03-29T12:57:18.886Z,45.30
2019-03-29T12:59:40.095Z,45.00
2019-03-29T13:02:01.321Z,44.30
2019-03-29T13:04:22.563Z,44.70
2019-03-29T13:06:43.868Z,45.40
2019-03-29T13:09:05.660Z,44.70
2019-03-29T13:11:26.873Z,45.40
2019-03-29T13:14:10.528Z,45.10
2019-03-29T13:16:31.070Z,45.30
2019-03-29T13:18:53.827Z,44.70
2019-03-29T13:21:15.237Z,43.80
2019-03-29T13:23:36.619Z,45.30
2019-03-29T13:25:57.837Z,44.00
2019-03-29T13:28:19.046Z,45.00
2019-03-29T13:30:40.274Z,44.80
2019-03-29T13:33:01.463Z,44.90
2019-03-29T13:35:22.671Z,43.80
2019-03-29T13:37:43.870Z,43.50
2019-03-29T13:40:13.640Z,43.70
2019-03-29T13:42:34.825Z,43.80
2019-03-29T13:44:56.008Z,44.40
2019-03-29T13:47:18.216Z,43.90
2019-03-29T13:49:39.633Z,43.80
2019-03-29T13:52:00.853Z,43.40
2019-03-29T13:54:22.154Z,44.00
2019-03-29T13:56:43.352Z,44.00
2019-03-29T13:59:04.543Z,43.90
2019-03-29T14:01:25.765Z,42.80
2019-03-29T14:03:46.959Z,42.50
2019-03-29T14:06:08.152Z,42.70
2019-03-29T14:08:29.339Z,42.20
2019-03-29T14:11:04.350Z,42.70
2019-03-29T14:13:25.568Z,42.90
2019-03-29T14:15:46.880Z,42.80
2019-03-29T14:18:11.484Z,42.50
2019-03-29T14:20:33.325Z,42.30
2019-03-29T14:22:54.607Z,42.50
2019-03-29T14:25:15.812Z,42.60
2019-03-29T14:27:37.123Z,42.40
2019-03-29T14:30:04.858Z,42.50
2019-03-29T14:32:21.738Z,43.30
2019-03-29T14:34:42.921Z,42.60
2019-03-29T14:37:04.132Z,42.20
2019-03-29T14:39:25.342Z,43.10
2019-03-29T14:41:46.535Z,43.10
2019-03-29T14:44:07.728Z,42.10
2019-03-29T14:46:30.097Z,41.40
2019-03-29T14:48:51.385Z,41.80
2019-03-29T14:51:12.701Z,41.40
2019-03-29T14:53:33.894Z,41.20
2019-03-29T14:55:55.105Z,41.00
2019-03-29T14:58:16.337Z,41.00
2019-03-29T15:00:43.271Z,41.50
2019-03-29T15:03:04.674Z,41.70
2019-03-29T15:05:27.046Z,41.10
2019-03-29T15:07:48.445Z,40.40
2019-03-29T15:10:16.181Z,41.00
2019-03-29T15:12:37.407Z,41.40
2019-03-29T15:15:06.027Z,41.10
2019-03-29T15:17:21.749Z,40.20
2019-03-29T15:19:43.011Z,40.70
2019-03-29T15:22:12.315Z,40.90
2019-03-29T15:24:33.807Z,40.70
2019-03-29T15:26:55.011Z,40.60
2019-03-29T15:29:16.233Z,41.30
2019-03-29T15:31:41.445Z,40.50
2019-03-29T15:34:02.731Z,40.70
2019-03-29T15:36:24.073Z,40.20
2019-03-29T15:38:45.360Z,40.00
2019-03-29T15:41:06.690Z,39.60
2019-03-29T15:43:27.885Z,39.70
2019-03-29T15:45:49.302Z,40.40
2019-03-29T15:48:10.526Z,40.80
2019-03-29T15:50:31.713Z,40.80
2019-03-29T15:52:52.927Z,41.00
2019-03-29T15:55:14.111Z,40.30
2019-03-29T15:57:35.644Z,40.30
2019-03-29T15:59:56.891Z,41.30
2019-03-29T16:02:18.194Z,41.60
2019-03-29T16:04:39.390Z,41.30
2019-03-29T16:07:00.603Z,41.40
2019-03-29T16:09:21.893Z,41.10
2019-03-29T16:11:43.104Z,41.10
2019-03-29T16:14:04.283Z,41.00
2019-03-29T16:16:25.755Z,41.50
2019-03-29T16:18:46.980Z,41.30
2019-03-29T16:21:08.284Z,41.30
2019-03-29T16:23:29.485Z,41.50
2019-03-29T16:25:50.669Z,41.80
2019-03-29T16:28:12.125Z,41.60
2019-03-29T16:30:36.686Z,41.70
2019-03-29T16:32:58.037Z,42.00
2019-03-29T16:35:22.381Z,41.80
2019-03-29T16:37:56.377Z,42.00
2019-03-29T16:40:24.980Z,42.20
2019-03-29T16:42:46.321Z,42.30
2019-03-29T16:45:07.918Z,42.30
2019-03-29T16:47:29.261Z,42.50
2019-03-29T16:49:50.482Z,42.60
2019-03-29T16:52:12.890Z,42.50
2019-03-29T16:54:34.081Z,42.40
2019-03-29T16:56:55.409Z,42.50
2019-03-29T16:59:16.660Z,42.30
2019-03-29T17:01:38.049Z,42.80
2019-03-29T17:04:19.161Z,42.90
2019-03-29T17:06:42.186Z,42.80
2019-03-29T17:09:05.807Z,43.40
2019-03-29T17:11:27.108Z,43.50
2019-03-29T17:13:51.967Z,43.40
2019-03-29T17:16:29.744Z,43.20
2019-03-29T17:18:41.092Z,43.20
2019-03-29T17:21:02.355Z,43.90
2019-03-29T17:23:23.857Z,43.90
2019-03-29T17:25:45.162Z,43.80
2019-03-29T17:28:09.657Z,43.50
2019-03-29T17:30:36.906Z,43.40
2019-03-29T17:32:58.165Z,43.10
2019-03-29T17:35:19.489Z,42.90
2019-03-29T17:37:40.803Z,43.20
2019-03-29T17:40:05.116Z,43.50
2019-03-29T17:42:26.313Z,43.70
2019-03-29T17:44:47.534Z,43.70
2019-03-29T17:47:08.743Z,43.60
2019-03-29T17:49:29.965Z,43.90
2019-03-29T17:51:51.180Z,44.10
2019-03-29T17:54:13.638Z,44.40
2019-03-29T17:56:34.834Z,44.60
2019-03-29T17:58:56.208Z,44.80
2019-03-29T18:01:21.365Z,45.20
2019-03-29T18:03:42.563Z,45.30
2019-03-29T18:06:03.785Z,45.90
2019-03-29T18:08:31.354Z,46.20
2019-03-29T18:10:52.569Z,46.40
2019-03-29T18:13:14.898Z,46.60
2019-03-29T18:15:36.093Z,46.70
2019-03-29T18:17:57.485Z,47.10
2019-03-29T18:20:18.784Z,47.10
2019-03-29T18:22:40.027Z,47.40
2019-03-29T18:25:01.272Z,47.60
2019-03-29T18:27:28.374Z,47.90
2019-03-29T18:29:50.261Z,48.20
2019-03-29T18:32:11.679Z,48.30
2019-03-29T18:34:33.609Z,48.80
2019-03-29T18:36:57.009Z,48.90
2019-03-29T18:39:20.508Z,48.90
2019-03-29T18:41:41.736Z,48.90
2019-03-29T18:44:02.941Z,49.00
2019-03-29T18:46:24.508Z,49.20
2019-03-29T18:48:45.859Z,49.20
2019-03-29T18:51:13.126Z,49.30
2019-03-29T18:53:34.339Z,49.50
2019-03-29T18:55:55.541Z,49.50
2019-03-29T18:58:17.013Z,50.10
2019-03-29T19:00:38.897Z,50.10
2019-03-29T19:03:00.449Z,50.20
2019-03-29T19:05:23.925Z,50.60
2019-03-29T19:07:45.353Z,51.00
2019-03-29T19:10:06.791Z,51.30
2019-03-29T19:12:28.055Z,51.70
2019-03-29T19:14:49.270Z,52.70
2019-03-29T19:17:11.784Z,53.00
2019-03-29T19:19:33.164Z,54.20
2019-03-29T19:21:54.671Z,54.10
2019-03-29T19:24:16.012Z,54.70
2019-03-29T19:26:37.434Z,55.00
2019-03-29T19:28:58.649Z,55.80
2019-03-29T19:31:20.311Z,55.30
2019-03-29T19:33:41.785Z,55.30
2019-03-29T19:36:03.197Z,55.30
2019-03-29T19:38:42.900Z,55.50
2019-03-29T19:41:04.126Z,55.50
2019-03-29T19:43:25.441Z,55.60
2019-03-29T19:45:46.793Z,55.80
2019-03-29T19:48:08.147Z,56.70
2019-03-29T19:50:29.473Z,56.30
2019-03-29T19:52:51.056Z,56.60
2019-03-29T19:55:44.689Z,56.90
2019-03-29T19:58:06.189Z,57.20
2019-03-29T20:00:37.278Z,57.60
2019-03-29T20:02:58.679Z,57.70
2019-03-29T20:05:27.053Z,58.20
2019-03-29T20:07:48.545Z,58.20
2019-03-29T20:10:09.853Z,58.50
2019-03-29T20:12:31.343Z,59.50
2019-03-29T20:14:52.641Z,59.40
2019-03-29T20:17:27.665Z,59.80
2019-03-29T20:19:48.107Z,60.20
2019-03-29T20:22:09.358Z,60.10
2019-03-29T20:24:30.614Z,60.90
2019-03-29T20:26:51.922Z,61.60
2019-03-29T20:29:13.218Z,60.90
2019-03-29T20:31:34.465Z,60.10
2019-03-29T20:33:59.382Z,59.70
2019-03-29T20:36:35.507Z,59.80
2019-03-29T20:38:56.728Z,59.10
2019-03-29T20:41:18.147Z,59.10
2019-03-29T20:43:39.792Z,59.30
2019-03-29T20:46:01.324Z,59.30
2019-03-29T20:48:22.878Z,59.90
2019-03-29T20:50:50.435Z,59.80
2019-03-29T20:53:11.922Z,60.00
2019-03-29T20:55:33.318Z,60.10
2019-03-29T20:57:54.647Z,60.60
2019-03-29T21:00:20.049Z,60.90
2019-03-29T21:02:41.400Z,61.00
2019-03-29T21:05:05.316Z,61.00
2019-03-29T21:07:26.829Z,61.40
2019-03-29T21:09:55.187Z,61.20
2019-03-29T21:12:17.009Z,61.60
2019-03-29T21:14:38.877Z,61.70
2019-03-29T21:17:00.140Z,62.00
2019-03-29T21:19:22.137Z,62.30
2019-03-29T21:21:43.378Z,62.60
2019-03-29T21:24:11.053Z,62.60
2019-03-29T21:26:32.351Z,62.40
2019-03-29T21:28:53.950Z,62.50
2019-03-29T21:31:16.429Z,62.80
2019-03-29T21:33:40.607Z,63.30
2019-03-29T21:36:01.067Z,63.20
2019-03-29T21:38:31.586Z,63.90
2019-03-29T21:40:53.411Z,63.90
2019-03-29T21:43:14.632Z,64.20
2019-03-29T21:45:35.933Z,64.70
2019-03-29T21:48:04.889Z,65.40
2019-03-29T21:50:20.313Z,66.00
2019-03-29T21:52:41.580Z,67.60
2019-03-29T21:55:04.286Z,68.10
2019-03-29T21:57:25.490Z,68.20
2019-03-29T21:59:46.713Z,68.40
2019-03-29T22:02:07.996Z,68.10
2019-03-29T22:04:29.275Z,67.70
2019-03-29T22:06:50.521Z,67.60
2019-03-29T22:09:11.733Z,68.00
2019-03-29T22:11:32.951Z,68.10
2019-03-29T22:14:03.535Z,68.70
2019-03-29T22:16:24.819Z,70.30
2019-03-29T22:18:46.094Z,70.90
2019-03-29T22:21:07.333Z,71.40
2019-03-29T22:23:29.639Z,72.00
2019-03-29T22:25:50.862Z,72.60
2019-03-29T22:28:12.093Z,73.00
2019-03-29T22:30:33.317Z,73.70
2019-03-29T22:32:54.526Z,74.00
2019-03-29T22:35:15.722Z,74.30
2019-03-29T22:37:36.932Z,74.40
2019-03-29T22:39:58.123Z,74.80
2019-03-29T22:42:19.333Z,74.80
2019-03-29T22:44:41.877Z,75.00
2019-03-29T22:47:03.159Z,75.40
2019-03-29T22:49:24.369Z,75.60
2019-03-29T22:51:45.632Z,75.60
2019-03-29T22:54:06.826Z,75.90
2019-03-29T22:56:28.074Z,76.00
2019-03-29T22:58:49.299Z,76.30
2019-03-29T23:01:10.931Z,76.60
2019-03-29T23:03:34.155Z,77.10
2019-03-29T23:05:55.360Z,77.40
2019-03-29T23:08:16.594Z,77.30
2019-03-29T23:10:37.787Z,77.50
2019-03-29T23:12:59.123Z,77.60
2019-03-29T23:15:20.498Z,77.70
2019-03-29T23:17:41.838Z,77.70
2019-03-29T23:20:04.026Z,77.50
2019-03-29T23:22:25.269Z,77.70
2019-03-29T23:24:46.485Z,77.30
2019-03-29T23:27:07.699Z,77.40
2019-03-29T23:29:29.104Z,78.10
2019-03-29T23:31:50.416Z,78.10
2019-03-29T23:34:11.633Z,78.40
2019-03-29T23:36:32.841Z,78.10
2019-03-29T23:38:54.070Z,77.50
2019-03-29T23:41:15.275Z,77.60
2019-03-29T23:43:36.737Z,78.70
2019-03-29T23:45:57.962Z,78.60
2019-03-29T23:48:19.207Z,78.40
2019-03-29T23:50:40.416Z,78.20
2019-03-29T23:53:01.662Z,78.70
2019-03-29T23:55:24.312Z,78.40
2019-03-29T23:57:45.581Z,79.50
